Time;durP1;ratioP1;P1;durP2;ratioP2;P2;SDS_P1;SDS_P2;PMS_P1;PMS_P2;Temp;Humidity;BMP_temperature;BMP_pressure;BME280_temperature;BME280_humidity;BME280_pressure;Samples;Min_cycle;Max_cycle;Signal;HPM_P1;HPM_P2
2023/06/13 00:01:11;;;;;;;;;;;;;;;27.49;21.32;101510.47;5054034;28;19917;-68
2023/06/13 00:03:36;;;;;;;;;;;;;;;27.29;23.04;101502.28;5055021;28;19913;-69
2023/06/13 00:06:02;;;;;;;;;;;;;;;27.33;21.81;101495.91;5055002;28;19927;-69
2023/06/13 00:08:35;;;;;;;;;;;;;;;27.32;22.02;101501.69;5055389;28;20273;-69
2023/06/13 00:11:00;;;;;;;;;;;;;;;27.25;22.62;101504.75;5074627;28;19916;-68
2023/06/13 00:13:25;;;;;;;;;;;;;;;27.24;22.79;101501.13;5074899;28;19919;-68
2023/06/13 00:15:56;;;;;;;;;;;;;;;27.30;21.27;101499.22;5074522;28;20377;-68
2023/06/13 00:18:24;;;;;;;;;;;;;;;27.26;21.33;101506.41;5074257;28;20376;-69
2023/06/13 00:20:52;;;;;;;;;;;;;;;27.23;21.51;101498.69;5074849;28;19935;-68
2023/06/13 00:23:17;;;;;;;;;;;;;;;27.22;21.23;101497.00;5074583;28;19961;-68
2023/06/13 00:25:42;;;;;;;;;;;;;;;27.22;21.49;101499.78;5056784;28;19912;-69
2023/06/13 00:28:08;;;;;;;;;;;;;;;27.16;20.97;101503.66;5056407;28;20430;-69
2023/06/13 00:30:33;;;;;;;;;;;;;;;27.11;20.93;101493.47;5074578;28;19916;-69
2023/06/13 00:32:59;;;;;;;;;;;;;;;27.12;20.66;101502.56;5074622;28;20520;-69
2023/06/13 00:35:24;;;;;;;;;;;;;;;27.12;20.40;101497.06;5074046;28;20408;-69
2023/06/13 00:37:50;;;;;;;;;;;;;;;27.13;20.65;101496.75;5074674;28;20257;-68
2023/06/13 00:40:17;;;;;;;;;;;;;;;27.12;20.42;101500.63;5064665;28;19916;-69
2023/06/13 00:42:42;;;;;;;;;;;;;;;27.10;20.50;101499.25;5054131;28;20015;-70
2023/06/13 00:45:23;;;;;;;;;;;;;;;27.06;20.84;101496.25;5054184;28;19955;-69
2023/06/13 00:47:54;;;;;;;;;;;;;;;26.98;20.25;101500.38;5053962;28;19913;-70
2023/06/13 00:50:21;;;;;;;;;;;;;;;26.92;19.88;101496.00;5053819;28;19938;-70
2023/06/13 00:52:47;;;;;;;;;;;;;;;26.88;19.58;101500.41;5053791;28;19916;-70
2023/06/13 00:55:14;;;;;;;;;;;;;;;26.90;19.71;101508.41;5053886;28;19920;-69
2023/06/13 00:57:40;;;;;;;;;;;;;;;26.93;19.34;101502.31;5053778;28;20299;-69
2023/06/13 01:00:07;;;;;;;;;;;;;;;26.93;19.40;101499.56;5053788;28;19913;-70
2023/06/13 01:02:33;;;;;;;;;;;;;;;26.92;19.39;101504.25;5052941;28;20389;-70
2023/06/13 01:05:02;;;;;;;;;;;;;;;26.84;19.26;101500.16;5053448;28;19966;-69
2023/06/13 01:07:29;;;;;;;;;;;;;;;26.67;19.30;101498.78;5053683;28;19947;-69
2023/06/13 01:09:55;;;;;;;;;;;;;;;26.60;19.40;101507.34;5066926;28;19916;-69
2023/06/13 01:12:23;;;;;;;;;;;;;;;26.61;19.68;101495.19;5073410;28;19981;-69
2023/06/13 01:15:00;;;;;;;;;;;;;;;26.61;19.35;101498.78;5073324;28;20257;-69
2023/06/13 01:17:33;;;;;;;;;;;;;;;26.50;19.50;101497.09;5073638;28;19924;-69
2023/06/13 01:19:59;;;;;;;;;;;;;;;26.52;19.69;101494.06;5072296;28;19912;-69
2023/06/13 01:22:42;;;;;;;;;;;;;;;26.44;19.43;101493.50;5073535;28;19961;-69
2023/06/13 01:25:08;;;;;;;;;;;;;;;26.40;19.65;101491.59;5073388;28;19992;-69
2023/06/13 01:27:33;;;;;;;;;;;;;;;26.42;19.82;101494.91;5055088;28;20011;-69
2023/06/13 01:30:00;;;;;;;;;;;;;;;26.48;19.65;101502.06;5072877;28;20383;-70
2023/06/13 01:32:26;;;;;;;;;;;;;;;26.48;19.79;101499.31;5073006;28;19919;-70
2023/06/13 01:34:52;;;;;;;;;;;;;;;26.37;19.71;101495.72;5055049;28;20293;-70
2023/06/13 01:37:17;;;;;;;;;;;;;;;26.38;19.52;101504.81;5057153;28;19927;-69
2023/06/13 01:39:43;;;;;;;;;;;;;;;26.39;19.28;101503.69;5053026;28;20458;-70
2023/06/13 01:42:08;;;;;;;;;;;;;;;26.32;19.56;101501.25;5052825;28;20355;-70
2023/06/13 01:44:33;;;;;;;;;;;;;;;26.30;19.56;101508.94;5051667;28;19917;-69
2023/06/13 01:47:06;;;;;;;;;;;;;;;26.31;19.50;101505.09;5053021;28;19919;-69
2023/06/13 01:49:31;;;;;;;;;;;;;;;26.19;19.63;101507.28;5052849;28;19919;-69
2023/06/13 01:52:03;;;;;;;;;;;;;;;26.24;19.97;101499.00;5052708;28;19917;-70
2023/06/13 01:54:32;;;;;;;;;;;;;;;26.23;19.90;101494.63;5052867;28;19913;-68
2023/06/13 01:57:01;;;;;;;;;;;;;;;26.25;20.22;101495.16;5053115;28;19913;-68
2023/06/13 01:59:27;;;;;;;;;;;;;;;26.22;19.70;101498.47;5052623;28;19927;-68
2023/06/13 02:01:53;;;;;;;;;;;;;;;26.23;19.62;101506.47;5052140;28;19920;-68
2023/06/13 02:04:19;;;;;;;;;;;;;;;26.21;20.06;101507.84;5052551;28;20320;-68
2023/06/13 02:06:45;;;;;;;;;;;;;;;26.24;19.50;101510.03;5054214;28;19917;-69
2023/06/13 02:09:10;;;;;;;;;;;;;;;26.22;19.66;101501.22;5061857;28;19935;-68
2023/06/13 02:11:36;;;;;;;;;;;;;;;26.25;19.31;101497.94;5074835;28;19917;-68
2023/06/13 02:14:01;;;;;;;;;;;;;;;26.17;19.85;101507.56;5073020;28;20065;-68
2023/06/13 02:16:29;;;;;;;;;;;;;;;26.15;19.73;101501.50;5072723;28;19912;-70
2023/06/13 02:18:55;;;;;;;;;;;;;;;26.21;19.68;101505.09;5054766;28;19917;-70
2023/06/13 02:21:21;;;;;;;;;;;;;;;26.23;19.82;101497.38;5072475;28;19919;-70
2023/06/13 02:23:46;;;;;;;;;;;;;;;26.27;19.83;101502.03;5072180;28;19913;-70
2023/06/13 02:26:12;;;;;;;;;;;;;;;26.23;20.14;101500.13;5037981;28;19920;-70
2023/06/13 02:28:37;;;;;;;;;;;;;;;26.19;19.69;101510.88;5072559;28;20327;-70
2023/06/13 02:31:02;;;;;;;;;;;;;;;26.21;19.55;101510.59;5073667;28;20022;-70
2023/06/13 02:33:30;;;;;;;;;;;;;;;26.20;20.08;101503.41;5060993;28;19920;-69
2023/06/13 02:35:55;;;;;;;;;;;;;;;26.20;19.66;101506.19;5056718;28;19970;-69
2023/06/13 02:38:20;;;;;;;;;;;;;;;26.11;21.20;101510.56;5056490;28;19913;-70
2023/06/13 02:40:46;;;;;;;;;;;;;;;26.08;20.15;101504.50;5056331;28;19913;-69
2023/06/13 02:43:11;;;;;;;;;;;;;;;26.12;20.26;101513.06;5056432;28;19920;-69
2023/06/13 02:45:36;;;;;;;;;;;;;;;26.04;20.98;101508.91;5056296;28;20348;-70
2023/06/13 02:48:02;;;;;;;;;;;;;;;26.05;20.54;101509.72;5061169;28;20308;-70
2023/06/13 02:50:27;;;;;;;;;;;;;;;26.00;20.82;101510.56;5038066;28;19917;-70
2023/06/13 02:52:52;;;;;;;;;;;;;;;26.01;20.93;101514.13;5056074;28;20269;-71
2023/06/13 02:55:18;;;;;;;;;;;;;;;25.87;21.78;101514.63;5056064;28;19999;-70
2023/06/13 02:57:43;;;;;;;;;;;;;;;25.91;20.89;101512.16;5056058;28;20372;-69
2023/06/13 03:00:09;;;;;;;;;;;;;;;25.94;20.86;101513.56;5055895;28;20260;-69
2023/06/13 03:02:38;;;;;;;;;;;;;;;25.88;21.46;101507.19;5055114;28;19917;-69
2023/06/13 03:05:10;;;;;;;;;;;;;;;25.83;21.66;101515.41;5037985;28;19920;-69
2023/06/13 03:07:36;;;;;;;;;;;;;;;25.78;21.95;101516.25;5055546;28;19943;-68
2023/06/13 03:10:03;;;;;;;;;;;;;;;25.86;21.00;101517.63;5069835;28;19951;-69
2023/06/13 03:12:29;;;;;;;;;;;;;;;25.79;21.31;101517.06;5058048;28;19978;-69
2023/06/13 03:14:54;;;;;;;;;;;;;;;25.73;22.57;101521.72;5075918;28;20352;-69
2023/06/13 03:17:19;;;;;;;;;;;;;;;25.62;22.12;101517.28;5075595;28;19958;-69
2023/06/13 03:19:45;;;;;;;;;;;;;;;25.58;22.00;101521.69;5075572;28;19920;-68
2023/06/13 03:22:14;;;;;;;;;;;;;;;25.64;21.67;101523.34;5075594;28;20436;-69
2023/06/13 03:24:44;;;;;;;;;;;;;;;25.62;21.91;101522.78;5057636;28;20273;-69
2023/06/13 03:27:12;;;;;;;;;;;;;;;25.69;21.45;101524.19;5075526;28;20416;-69
2023/06/13 03:29:37;;;;;;;;;;;;;;;25.77;21.60;101516.50;5060888;28;19917;-69
2023/06/13 03:32:02;;;;;;;;;;;;;;;25.82;21.52;101517.34;5037470;28;19967;-69
2023/06/13 03:34:29;;;;;;;;;;;;;;;25.86;21.51;101523.16;5055168;28;19913;-69
2023/06/13 03:36:55;;;;;;;;;;;;;;;25.89;21.55;101526.19;5054019;28;19924;-69
2023/06/13 03:39:20;;;;;;;;;;;;;;;25.90;21.37;101529.75;5055205;28;19913;-69
2023/06/13 03:41:45;;;;;;;;;;;;;;;25.91;21.62;101525.06;5054809;28;20410;-69
2023/06/13 03:44:11;;;;;;;;;;;;;;;25.97;21.15;101524.03;5054291;28;19914;-69
2023/06/13 03:46:37;;;;;;;;;;;;;;;25.98;21.87;101532.00;5055352;28;20493;-69
2023/06/13 03:49:02;;;;;;;;;;;;;;;25.95;21.71;101523.47;5054963;28;20003;-69
2023/06/13 03:51:28;;;;;;;;;;;;;;;25.89;21.73;101525.34;5054818;28;19971;-69
2023/06/13 03:53:54;;;;;;;;;;;;;;;25.81;22.54;101521.19;5054721;28;19948;-69
2023/06/13 03:56:19;;;;;;;;;;;;;;;25.84;21.85;101526.16;5054530;28;20413;-69
2023/06/13 03:58:45;;;;;;;;;;;;;;;25.82;21.96;101533.03;5054514;28;19925;-69
2023/06/13 04:01:10;;;;;;;;;;;;;;;25.84;22.29;101534.41;5053980;28;19963;-69
2023/06/13 04:03:39;;;;;;;;;;;;;;;25.84;22.15;101539.09;5054810;28;20424;-69
2023/06/13 04:06:05;;;;;;;;;;;;;;;25.81;22.39;101536.88;5036852;28;19924;-69
2023/06/13 04:08:30;;;;;;;;;;;;;;;25.82;22.00;101541.31;5056154;28;20277;-70
2023/06/13 04:10:56;;;;;;;;;;;;;;;25.89;22.04;101542.69;5074934;28;20399;-69
2023/06/13 04:13:21;;;;;;;;;;;;;;;25.93;22.41;101537.50;5074629;28;20428;-69
2023/06/13 04:15:47;;;;;;;;;;;;;;;25.98;22.31;101537.50;5074556;28;19919;-70
2023/06/13 04:18:16;;;;;;;;;;;;;;;25.99;22.56;101538.34;5056503;28;19919;-69
2023/06/13 04:20:42;;;;;;;;;;;;;;;25.97;22.46;101533.13;5074507;28;19917;-69
2023/06/13 04:23:07;;;;;;;;;;;;;;;26.01;22.17;101539.72;5074629;28;19934;-70
2023/06/13 04:25:33;;;;;;;;;;;;;;;26.05;22.10;101540.81;5062577;28;20649;-69
2023/06/13 04:27:58;;;;;;;;;;;;;;;26.11;21.97;101549.09;5054358;28;19912;-69
2023/06/13 04:30:24;;;;;;;;;;;;;;;26.14;22.55;101540.31;5036379;28;19913;-69
2023/06/13 04:32:50;;;;;;;;;;;;;;;26.12;21.91;101537.00;5036549;28;20289;-70
2023/06/13 04:35:18;;;;;;;;;;;;;;;26.16;21.81;101536.19;5054083;28;19913;-70
2023/06/13 04:37:46;;;;;;;;;;;;;;;26.17;22.27;101534.25;5054127;28;20014;-69
2023/06/13 04:40:13;;;;;;;;;;;;;;;26.19;22.03;101526.56;5054169;28;20312;-70
2023/06/13 04:42:38;;;;;;;;;;;;;;;26.18;22.05;101547.75;5053989;28;19971;-70
2023/06/13 04:45:04;;;;;;;;;;;;;;;26.16;22.17;101544.44;5053937;28;19951;-70
2023/06/13 04:47:30;;;;;;;;;;;;;;;26.17;22.32;101540.59;5053896;28;20353;-70
2023/06/13 04:49:57;;;;;;;;;;;;;;;26.16;22.30;101544.44;5053964;28;19919;-69
2023/06/13 04:52:23;;;;;;;;;;;;;;;26.14;22.33;101543.06;5053642;28;19955;-68
2023/06/13 04:54:49;;;;;;;;;;;;;;;26.17;22.21;101535.09;5053098;28;20498;-70
2023/06/13 04:57:14;;;;;;;;;;;;;;;26.17;22.03;101537.84;5053634;28;19952;-70
2023/06/13 04:59:41;;;;;;;;;;;;;;;26.15;22.57;101536.44;5035780;28;19920;-70
2023/06/13 05:02:06;;;;;;;;;;;;;;;26.15;22.20;101542.81;5052402;28;19912;-70
2023/06/13 05:04:31;;;;;;;;;;;;;;;26.21;22.35;101541.69;5053028;28;19963;-70
2023/06/13 05:06:59;;;;;;;;;;;;;;;26.30;22.30;101542.00;5035184;28;19967;-70
2023/06/13 05:09:25;;;;;;;;;;;;;;;26.37;22.51;101541.72;5062258;28;20270;-70
2023/06/13 05:11:50;;;;;;;;;;;;;;;26.45;22.63;101530.19;5055196;28;19927;-69
2023/06/13 05:14:16;;;;;;;;;;;;;;;26.50;22.39;101529.34;5073740;28;20446;-69
2023/06/13 05:16:41;;;;;;;;;;;;;;;26.55;22.33;101529.34;5073085;28;20297;-69
2023/06/13 05:19:06;;;;;;;;;;;;;;;26.59;22.22;101539.53;5073086;28;19912;-69
2023/06/13 05:21:32;;;;;;;;;;;;;;;26.59;22.38;101538.69;5063822;28;19948;-69
2023/06/13 05:23:58;;;;;;;;;;;;;;;26.68;21.98;101537.09;5053279;28;19913;-70
2023/06/13 05:26:23;;;;;;;;;;;;;;;26.73;22.28;101539.84;5053123;28;19955;-71
2023/06/13 05:28:49;;;;;;;;;;;;;;;26.83;22.15;101539.81;5053438;28;19943;-69
2023/06/13 05:31:14;;;;;;;;;;;;;;;26.88;22.41;101536.25;5054261;28;20011;-69
2023/06/13 05:33:40;;;;;;;;;;;;;;;26.88;22.74;101539.00;5054660;28;19913;-69
2023/06/13 05:36:05;;;;;;;;;;;;;;;26.89;23.44;101546.16;5047290;28;20288;-69
2023/06/13 05:38:31;;;;;;;;;;;;;;;26.90;23.28;101545.06;5052791;28;20337;-70
2023/06/13 05:40:56;;;;;;;;;;;;;;;26.94;23.05;101545.34;5053093;28;19919;-70
2023/06/13 05:43:22;;;;;;;;;;;;;;;26.96;22.63;101548.63;5053037;28;19913;-70
2023/06/13 05:45:48;;;;;;;;;;;;;;;27.01;23.26;101549.47;5052822;28;20324;-69
2023/06/13 05:48:13;;;;;;;;;;;;;;;27.03;23.44;101532.66;5052812;28;19967;-69
2023/06/13 05:50:38;;;;;;;;;;;;;;;27.02;23.60;101537.34;5052653;28;20110;-70
2023/06/13 05:53:04;;;;;;;;;;;;;;;26.91;23.92;101541.19;5052640;28;19920;-70
2023/06/13 05:55:29;;;;;;;;;;;;;;;27.01;24.12;101538.44;5052694;28;20577;-69
2023/06/13 05:57:54;;;;;;;;;;;;;;;27.08;23.50;101534.56;5052423;28;19943;-69
2023/06/13 06:00:20;;;;;;;;;;;;;;;27.11;23.35;101537.56;5052736;28;20007;-69
2023/06/13 06:02:46;;;;;;;;;;;;;;;27.15;23.24;101544.19;5051837;28;19913;-68
2023/06/13 06:05:11;;;;;;;;;;;;;;;27.07;23.66;101544.75;5052043;28;19913;-70
2023/06/13 06:07:46;;;;;;;;;;;;;;;27.09;23.74;101542.56;5052360;28;19912;-69
2023/06/13 06:10:12;;;;;;;;;;;;;;;27.04;24.32;101551.69;5067830;28;19919;-69
2023/06/13 06:12:37;;;;;;;;;;;;;;;27.06;23.31;101554.16;5072389;28;19940;-69
2023/06/13 06:15:03;;;;;;;;;;;;;;;27.02;23.24;101544.75;5072602;28;19983;-70
2023/06/13 06:17:28;;;;;;;;;;;;;;;27.03;23.22;101547.25;5065668;28;19917;-70
2023/06/13 06:19:53;;;;;;;;;;;;;;;26.98;23.96;101541.72;5052424;28;19917;-70
2023/06/13 06:22:19;;;;;;;;;;;;;;;27.04;23.49;101545.31;5052344;28;19921;-69
2023/06/13 06:24:44;;;;;;;;;;;;;;;27.03;23.36;101546.44;5052423;28;19917;-70
2023/06/13 06:27:12;;;;;;;;;;;;;;;26.95;24.24;101544.22;5034459;28;20007;-69
2023/06/13 06:29:38;;;;;;;;;;;;;;;26.96;24.10;101546.69;5052297;28;20031;-70
2023/06/13 06:32:04;;;;;;;;;;;;;;;26.87;23.84;101540.09;5052205;28;19917;-70
2023/06/13 06:34:30;;;;;;;;;;;;;;;26.85;23.67;101545.88;5034311;28;19948;-70
2023/06/13 06:36:55;;;;;;;;;;;;;;;26.73;23.83;101550.88;5052737;28;19952;-68
2023/06/13 06:39:21;;;;;;;;;;;;;;;26.72;23.73;101540.94;5035679;28;19913;-70
2023/06/13 06:41:46;;;;;;;;;;;;;;;26.62;25.13;101552.78;5053473;28;19920;-70
2023/06/13 06:44:12;;;;;;;;;;;;;;;26.54;23.80;101553.31;5052448;28;19913;-70
2023/06/13 06:46:37;;;;;;;;;;;;;;;26.56;23.80;101545.59;5052179;28;19913;-69
2023/06/13 06:49:02;;;;;;;;;;;;;;;26.54;24.41;101547.81;5052599;28;19913;-69
2023/06/13 06:51:28;;;;;;;;;;;;;;;26.50;24.08;101554.13;5052036;28;20420;-69
2023/06/13 06:53:55;;;;;;;;;;;;;;;26.43;25.33;101549.72;5034300;28;20361;-69
2023/06/13 06:56:26;;;;;;;;;;;;;;;26.40;25.00;101547.50;5051933;28;20007;-70
2023/06/13 06:58:52;;;;;;;;;;;;;;;26.43;24.91;101546.16;5033750;28;19952;-70
2023/06/13 07:01:18;;;;;;;;;;;;;;;26.45;24.55;101553.03;5051288;28;20376;-68
2023/06/13 07:03:44;;;;;;;;;;;;;;;26.51;24.94;101550.28;5052182;28;19921;-70
2023/06/13 07:06:11;;;;;;;;;;;;;;;26.52;24.45;101547.22;5052030;28;20365;-69
2023/06/13 07:08:36;;;;;;;;;;;;;;;26.54;24.56;101556.06;5036295;28;19922;-70
2023/06/13 07:11:02;;;;;;;;;;;;;;;26.63;24.12;101553.59;5072192;28;19920;-70
2023/06/13 07:13:27;;;;;;;;;;;;;;;26.70;25.03;101554.16;5067501;28;19916;-70
2023/06/13 07:15:52;;;;;;;;;;;;;;;26.70;25.24;101556.91;5051789;28;19913;-70
2023/06/13 07:18:18;;;;;;;;;;;;;;;26.80;24.41;101545.06;5053676;28;20050;-71
2023/06/13 07:20:44;;;;;;;;;;;;;;;26.90;24.46;101547.81;5055631;28;19952;-69
2023/06/13 07:23:10;;;;;;;;;;;;;;;26.92;24.21;101545.59;5055395;28;20019;-68
2023/06/13 07:25:35;;;;;;;;;;;;;;;27.08;23.90;101546.44;5055542;28;20364;-69
2023/06/13 07:28:00;;;;;;;;;;;;;;;27.13;24.46;101549.16;5055694;28;20015;-69
2023/06/13 07:30:26;;;;;;;;;;;;;;;27.23;24.11;101551.09;5055411;28;19913;-69
2023/06/13 07:32:51;;;;;;;;;;;;;;;27.36;23.66;101539.50;5055294;28;19912;-70
2023/06/13 07:35:16;;;;;;;;;;;;;;;27.34;23.52;101543.63;5055059;28;19918;-69
2023/06/13 07:37:42;;;;;;;;;;;;;;;27.52;23.40;101547.72;5037102;28;19932;-67
2023/06/13 07:40:09;;;;;;;;;;;;;;;27.57;23.63;101545.75;5055114;28;20031;-67
2023/06/13 07:42:35;;;;;;;;;;;;;;;27.75;23.04;101541.53;5039648;28;20433;-68
2023/06/13 07:45:00;;;;;;;;;;;;;;;27.85;23.13;101548.94;5034662;28;20000;-68
2023/06/13 07:47:26;;;;;;;;;;;;;;;28.03;23.19;101552.19;5033966;28;19944;-69
2023/06/13 07:49:51;;;;;;;;;;;;;;;28.18;23.00;101554.88;5034134;28;19913;-69
2023/06/13 07:52:16;;;;;;;;;;;;;;;28.44;22.22;101555.53;5033381;28;19917;-70
2023/06/13 07:54:41;;;;;;;;;;;;;;;28.53;22.18;101556.59;5033837;28;19940;-69
2023/06/13 07:57:07;;;;;;;;;;;;;;;28.79;21.80;101552.78;5033856;28;19963;-70
2023/06/13 07:59:32;;;;;;;;;;;;;;;28.94;21.56;101563.72;5033322;28;19925;-68
2023/06/13 08:01:58;;;;;;;;;;;;;;;29.11;21.51;101558.53;5032646;28;20048;-69
2023/06/13 08:04:24;;;;;;;;;;;;;;;29.32;21.37;101550.88;5043861;28;19956;-69
2023/06/13 08:06:50;;;;;;;;;;;;;;;29.41;21.50;101553.81;5054181;28;19912;-70
2023/06/13 08:09:16;;;;;;;;;;;;;;;29.54;21.14;101552.28;5060975;28;20385;-70
2023/06/13 08:11:41;;;;;;;;;;;;;;;29.61;21.29;101550.00;5054762;28;20274;-69
2023/06/13 08:14:08;;;;;;;;;;;;;;;29.81;21.03;101548.09;5054917;28;19919;-69
2023/06/13 08:16:34;;;;;;;;;;;;;;;29.90;20.97;101538.84;5054529;28;19913;-70
2023/06/13 08:18:59;;;;;;;;;;;;;;;29.99;20.63;101541.75;5053335;28;19919;-70
2023/06/13 08:21:25;;;;;;;;;;;;;;;30.03;20.70;101542.81;5053209;28;19913;-70
2023/06/13 08:23:51;;;;;;;;;;;;;;;29.96;20.42;101547.91;5054403;28;20349;-70
2023/06/13 08:26:16;;;;;;;;;;;;;;;29.88;20.57;101551.34;5054214;28;19920;-70
2023/06/13 08:28:43;;;;;;;;;;;;;;;30.00;20.46;101543.41;5053733;28;19917;-70
2023/06/13 08:31:08;;;;;;;;;;;;;;;30.13;20.43;101539.06;5054232;28;20459;-70
2023/06/13 08:33:34;;;;;;;;;;;;;;;30.25;20.47;101536.66;5054077;28;19947;-70
2023/06/13 08:36:00;;;;;;;;;;;;;;;30.26;20.57;101545.81;5036525;28;20321;-69
2023/06/13 08:38:25;;;;;;;;;;;;;;;30.22;20.19;101542.81;5054125;28;20016;-70
2023/06/13 08:40:51;;;;;;;;;;;;;;;30.21;20.13;101543.13;5054239;28;19912;-69
2023/06/13 08:43:17;;;;;;;;;;;;;;;30.29;20.00;101546.03;5054874;28;19913;-70
2023/06/13 08:45:43;;;;;;;;;;;;;;;30.23;20.26;101546.41;5054175;28;19956;-69
2023/06/13 08:48:08;;;;;;;;;;;;;;;30.16;20.16;101546.78;5054455;28;19920;-69
2023/06/13 08:50:33;;;;;;;;;;;;;;;30.12;20.51;101545.72;5055501;28;19917;-70
2023/06/13 08:53:00;;;;;;;;;;;;;;;30.14;20.43;101531.56;5057367;28;20281;-70
2023/06/13 08:55:27;;;;;;;;;;;;;;;30.14;20.48;101537.94;5059101;28;20337;-70
2023/06/13 08:57:53;;;;;;;;;;;;;;;30.13;20.70;101527.16;5054686;28;20070;-69
2023/06/13 09:00:18;;;;;;;;;;;;;;;30.13;20.45;101533.53;5037479;28;20039;-69
2023/06/13 09:02:45;;;;;;;;;;;;;;;30.19;20.32;101531.50;5054623;28;20269;-70
2023/06/13 09:05:13;;;;;;;;;;;;;;;30.21;20.58;101527.31;5054132;28;19923;-69
2023/06/13 09:07:39;;;;;;;;;;;;;;;30.32;20.41;101529.94;5053839;28;19917;-70
2023/06/13 09:10:05;;;;;;;;;;;;;;;30.47;20.52;101530.50;5068000;28;19916;-70
2023/06/13 09:12:30;;;;;;;;;;;;;;;30.53;19.93;101522.94;5073367;28;19924;-70
2023/06/13 09:14:55;;;;;;;;;;;;;;;30.65;20.12;101525.25;5055660;28;19912;-70
2023/06/13 09:17:21;;;;;;;;;;;;;;;30.85;20.03;101521.25;5073315;28;20395;-70
2023/06/13 09:19:47;;;;;;;;;;;;;;;30.92;19.34;101523.69;5073521;28;19913;-70
2023/06/13 09:22:15;;;;;;;;;;;;;;;31.04;19.69;101516.50;5055980;28;19913;-70
2023/06/13 09:24:43;;;;;;;;;;;;;;;31.17;19.47;101525.16;5053195;28;20742;-69
2023/06/13 09:27:08;;;;;;;;;;;;;;;31.25;19.23;101518.88;5053049;28;19920;-70
2023/06/13 09:29:35;;;;;;;;;;;;;;;31.03;19.18;101527.91;5052958;28;19920;-70
2023/06/13 09:32:00;;;;;;;;;;;;;;;31.15;18.80;101521.84;5035278;28;19916;-70
2023/06/13 09:34:26;;;;;;;;;;;;;;;31.20;18.49;101521.75;5052814;28;20008;-70
2023/06/13 09:36:51;;;;;;;;;;;;;;;31.20;19.04;101527.31;5053235;28;19913;-69
2023/06/13 09:39:17;;;;;;;;;;;;;;;31.22;18.96;101525.88;5052695;28;20377;-70
2023/06/13 09:41:43;;;;;;;;;;;;;;;31.27;18.68;101522.97;5052040;28;20004;-70
2023/06/13 09:44:08;;;;;;;;;;;;;;;31.25;18.58;101516.91;5052883;28;20245;-70
2023/06/13 09:46:35;;;;;;;;;;;;;;;31.29;18.50;101517.13;5052810;28;19919;-70
2023/06/13 09:49:01;;;;;;;;;;;;;;;31.32;17.94;101510.16;5051398;28;19912;-70
2023/06/13 09:51:29;;;;;;;;;;;;;;;31.23;17.48;101518.38;5052683;28;19924;-70
2023/06/13 09:53:54;;;;;;;;;;;;;;;31.22;17.80;101509.22;5052606;28;19916;-70
2023/06/13 09:56:20;;;;;;;;;;;;;;;31.24;17.64;101506.13;5052648;28;19936;-69
2023/06/13 09:58:46;;;;;;;;;;;;;;;31.34;18.10;101502.34;5034849;28;20363;-70
2023/06/13 10:01:17;;;;;;;;;;;;;;;31.36;18.34;101500.88;5051597;28;20413;-69
2023/06/13 10:03:43;;;;;;;;;;;;;;;31.43;18.03;101494.94;5052480;28;20005;-69
2023/06/13 10:06:09;;;;;;;;;;;;;;;31.48;17.82;101502.34;5034555;28;19966;-69
2023/06/13 10:08:34;;;;;;;;;;;;;;;31.43;18.19;101495.75;5054335;28;19938;-69
2023/06/13 10:11:02;;;;;;;;;;;;;;;31.46;17.52;101488.72;5072454;28;19917;-69
2023/06/13 10:13:29;;;;;;;;;;;;;;;31.55;18.07;101480.53;5072762;28;19913;-70
2023/06/13 10:15:58;;;;;;;;;;;;;;;31.71;17.71;101487.41;5072480;28;19913;-69
2023/06/13 10:18:27;;;;;;;;;;;;;;;31.80;17.29;101484.72;5037680;28;19978;-69
2023/06/13 10:20:55;;;;;;;;;;;;;;;31.92;17.52;101482.19;5052403;28;19924;-69
2023/06/13 10:23:21;;;;;;;;;;;;;;;32.05;17.71;101476.94;5052706;28;19913;-70
2023/06/13 10:25:51;;;;;;;;;;;;;;;32.00;17.02;101483.38;5052304;28;19913;-70
2023/06/13 10:28:35;;;;;;;;;;;;;;;32.20;17.56;101488.47;5034348;28;19913;-69
2023/06/13 10:31:00;;;;;;;;;;;;;;;32.32;17.03;101496.28;5052193;28;19916;-69
2023/06/13 10:34:01;;;;;;;;;;;;;;;32.47;17.20;101489.50;5034369;28;19913;-69
2023/06/13 10:36:45;;;;;;;;;;;;;;;32.50;17.21;101482.47;4974064;28;20000;-69
2023/06/13 10:39:23;;;;;;;;;;;;;;;32.64;16.87;101476.88;5047134;28;20315;-69
2023/06/13 10:41:57;;;;;;;;;;;;;;;32.67;16.31;101481.78;5051826;28;19959;-69
2023/06/13 10:44:31;;;;;;;;;;;;;;;32.96;16.48;101484.84;5052064;28;19939;-69
2023/06/13 10:46:57;;;;;;;;;;;;;;;33.06;16.34;101477.38;5052120;28;19982;-69
2023/06/13 10:49:22;;;;;;;;;;;;;;;33.26;16.37;101476.00;5052105;28;20357;-69
2023/06/13 10:51:47;;;;;;;;;;;;;;;33.45;16.30;101470.13;5034801;28;19956;-70
2023/06/13 10:54:14;;;;;;;;;;;;;;;33.61;15.95;101465.72;5056162;28;19917;-70
2023/06/13 10:56:41;;;;;;;;;;;;;;;33.98;16.07;101463.47;5056090;28;20340;-70
2023/06/13 10:59:08;;;;;;;;;;;;;;;34.19;15.70;101468.41;5055559;28;19920;-69
2023/06/13 11:01:34;;;;;;;;;;;;;;;34.56;14.72;101475.22;5055291;28;20433;-70
2023/06/13 11:04:03;;;;;;;;;;;;;;;34.67;14.56;101467.31;5054612;28;20396;-70
2023/06/13 11:06:29;;;;;;;;;;;;;;;35.06;14.28;101471.75;5056200;28;20357;-71
2023/06/13 11:09:07;;;;;;;;;;;;;;;35.11;13.89;101467.97;5060427;28;19916;-70
2023/06/13 11:11:38;;;;;;;;;;;;;;;35.17;13.33;101460.22;5075727;28;20400;-70
2023/06/13 11:14:06;;;;;;;;;;;;;;;35.30;14.16;101461.16;5063757;28;19920;-70
2023/06/13 11:16:35;;;;;;;;;;;;;;;35.55;14.07;101453.75;5055665;28;20384;-69
2023/06/13 11:19:04;;;;;;;;;;;;;;;35.85;13.55;101463.75;5055555;28;19920;-70
2023/06/13 11:21:30;;;;;;;;;;;;;;;36.05;14.46;101461.25;5055617;28;19920;-70
2023/06/13 11:23:56;;;;;;;;;;;;;;;36.01;13.29;101461.09;5055716;28;19913;-70
2023/06/13 11:26:21;;;;;;;;;;;;;;;36.21;13.94;101448.28;5055575;28;19983;-69
2023/06/13 11:28:48;;;;;;;;;;;;;;;36.22;13.98;101452.72;5037326;28;19913;-70
2023/06/13 11:31:15;;;;;;;;;;;;;;;36.31;14.03;101454.59;5055196;28;19947;-70
2023/06/13 11:33:43;;;;;;;;;;;;;;;36.46;14.27;101447.53;5055149;28;19956;-70
2023/06/13 11:36:08;;;;;;;;;;;;;;;36.32;13.78;101453.47;5055175;28;20328;-70
2023/06/13 11:38:37;;;;;;;;;;;;;;;36.25;14.17;101445.63;5055033;28;19956;-70
2023/06/13 11:41:02;;;;;;;;;;;;;;;36.08;14.05;101442.97;5055049;28;19990;-70
2023/06/13 11:43:28;;;;;;;;;;;;;;;36.02;14.73;101434.78;5054925;28;20362;-70
2023/06/13 11:45:58;;;;;;;;;;;;;;;36.27;14.33;101436.88;5036996;28;19919;-70
2023/06/13 11:48:23;;;;;;;;;;;;;;;36.12;14.01;101435.53;5054758;28;19956;-70
2023/06/13 11:50:49;;;;;;;;;;;;;;;36.53;14.65;101431.00;5054904;28;19965;-70
2023/06/13 11:53:15;;;;;;;;;;;;;;;36.71;14.62;101429.63;5055364;28;19916;-70
2023/06/13 11:55:40;;;;;;;;;;;;;;;36.98;13.70;101433.75;5054799;28;19917;-69
2023/06/13 11:58:07;;;;;;;;;;;;;;;37.13;14.22;101429.41;5054859;28;20111;-69
2023/06/13 12:00:48;;;;;;;;;;;;;;;37.41;13.76;101425.03;5054823;28;20007;-70
2023/06/13 12:03:22;;;;;;;;;;;;;;;37.60;12.96;101422.44;5054138;28;19952;-70
2023/06/13 12:05:51;;;;;;;;;;;;;;;38.10;13.76;101411.88;5054281;28;20289;-70
2023/06/13 12:08:16;;;;;;;;;;;;;;;38.53;13.36;101413.00;5054628;28;20276;-70
2023/06/13 12:10:45;;;;;;;;;;;;;;;38.97;12.85;101406.44;5059209;28;19913;-70
2023/06/13 12:13:11;;;;;;;;;;;;;;;39.22;12.50;101418.28;5053910;28;19935;-70
2023/06/13 12:15:36;;;;;;;;;;;;;;;39.36;12.34;101415.81;5054105;28;20424;-70
2023/06/13 12:18:02;;;;;;;;;;;;;;;39.81;12.13;101416.34;5054008;28;19919;-70
2023/06/13 12:20:29;;;;;;;;;;;;;;;39.79;12.37;101407.47;5053964;28;20306;-70
2023/06/13 12:22:58;;;;;;;;;;;;;;;39.92;11.90;101402.53;5054048;28;19944;-70
2023/06/13 12:25:25;;;;;;;;;;;;;;;40.09;11.84;101399.22;5054337;28;20008;-70
2023/06/13 12:27:51;;;;;;;;;;;;;;;40.23;12.01;101402.31;5054267;28;19955;-70
2023/06/13 12:30:17;;;;;;;;;;;;;;;40.37;11.95;101406.59;5054019;28;19940;-70
2023/06/13 12:32:50;;;;;;;;;;;;;;;40.60;11.46;101410.22;5054059;28;19999;-71